Niagara, North Dakota
Current Conditions -  °F | °C
As of 9:58 AM on Monday 26 Jan 2015 (Local Time) from KRDR Reporting Station
Clear Clear  
Wind Chill: 29°   Ceiling: Unl
Heat Index: 39°   Visibility: 10mi
Dew Point: 30°   Wind: 17mph
Humidity: 72%   Direction: 330°NNW
Pressure: 29.75"   Gusts: 24mph
Location:  48°N, 97.87°W
Report Text: KRDR 261558Z AUTO 33015G21KT 10SM CLR 04/M01 A2975 RMK AO2 SLP089 T00371010
Loading
Personal Weather Stations






























Interactive Weather Map New forecast layout! Learn more

10-Day Weather Forecast

Advertisements
Track Severe Weather on mobile